Time;durP1;ratioP1;P1;durP2;ratioP2;P2;SDS_P1;SDS_P2;PMS_P1;PMS_P2;Temp;Humidity;BMP_temperature;BMP_pressure;BME280_temperature;BME280_humidity;BME280_pressure;Samples;Min_cycle;Max_cycle;Signal;HPM_P1;HPM_P2
2023/03/15 00:02:32;;;;;;;3.70;1.80;;;;;;;-128.00;-1.00;-1.00;133886;1274;1002168;-79
2023/03/15 00:05:35;;;;;;;2.30;1.60;;;;;;;-128.00;-1.00;-1.00;133891;1274;1002578;-80
2023/03/15 00:08:37;;;;;;;1.90;1.80;;;;;;;-128.00;-1.00;-1.00;133892;1275;1002740;-78
2023/03/15 00:11:40;;;;;;;2.20;2.00;;;;;;;-128.00;-1.00;-1.00;133904;1274;1002511;-79
2023/03/15 00:14:42;;;;;;;2.70;2.30;;;;;;;-128.00;-1.00;-1.00;133862;1275;1002000;-79
2023/03/15 00:17:44;;;;;;;6.50;2.30;;;;;;;-128.00;-1.00;-1.00;133945;1274;1002143;-80
2023/03/15 00:20:47;;;;;;;3.00;2.50;;;;;;;-128.00;-1.00;-1.00;133927;1274;1002084;-80
2023/03/15 00:23:49;;;;;;;2.90;2.60;;;;;;;-128.00;-1.00;-1.00;133915;1274;1002244;-80
2023/03/15 00:26:52;;;;;;;3.70;2.50;;;;;;;-128.00;-1.00;-1.00;133925;1274;1002443;-80
2023/03/15 00:29:54;;;;;;;3.40;3.10;;;;;;;-128.00;-1.00;-1.00;133927;1274;1002807;-80
2023/03/15 00:32:56;;;;;;;3.30;3.00;;;;;;;-128.00;-1.00;-1.00;133930;1274;1002512;-80
2023/03/15 00:35:59;;;;;;;6.70;5.30;;;;;;;-128.00;-1.00;-1.00;133956;1274;1002149;-80
2023/03/15 00:39:02;;;;;;;5.70;4.50;;;;;;;-128.00;-1.00;-1.00;133869;1275;1002176;-79
2023/03/15 00:42:04;;;;;;;4.70;3.90;;;;;;;-128.00;-1.00;-1.00;133910;1275;1001754;-79
2023/03/15 00:45:07;;;;;;;4.00;3.70;;;;;;;-128.00;-1.00;-1.00;133937;1274;1002463;-79
2023/03/15 00:48:09;;;;;;;3.90;3.60;;;;;;;-128.00;-1.00;-1.00;133898;1275;1002234;-80
2023/03/15 00:51:12;;;;;;;4.80;3.90;;;;;;;-128.00;-1.00;-1.00;133931;1274;1002828;-80
2023/03/15 00:54:14;;;;;;;3.90;3.50;;;;;;;-128.00;-1.00;-1.00;133951;1274;1002170;-79
2023/03/15 00:57:16;;;;;;;3.50;3.20;;;;;;;-128.00;-1.00;-1.00;133906;1275;1002581;-80
2023/03/15 01:00:22;;;;;;;5.30;3.50;;;;;;;-128.00;-1.00;-1.00;133881;1274;1002477;-79
2023/03/15 01:03:24;;;;;;;4.80;3.50;;;;;;;-128.00;-1.00;-1.00;133843;1274;1002305;-79
2023/03/15 01:06:26;;;;;;;3.60;3.30;;;;;;;-128.00;-1.00;-1.00;133853;1274;1002155;-79
2023/03/15 01:09:30;;;;;;;5.70;4.50;;;;;;;-128.00;-1.00;-1.00;133837;1274;1002462;-79
2023/03/15 01:12:32;;;;;;;5.20;3.80;;;;;;;-128.00;-1.00;-1.00;133856;1275;1002297;-80
2023/03/15 01:15:35;;;;;;;6.70;3.60;;;;;;;-128.00;-1.00;-1.00;133866;1275;1002212;-79
2023/03/15 01:18:37;;;;;;;5.30;3.90;;;;;;;-128.00;-1.00;-1.00;133865;1275;1002405;-79
2023/03/15 01:21:40;;;;;;;4.00;3.60;;;;;;;-128.00;-1.00;-1.00;133857;1275;1002101;-80
2023/03/15 01:24:42;;;;;;;4.40;3.90;;;;;;;-128.00;-1.00;-1.00;133879;1275;1002051;-80
2023/03/15 01:27:44;;;;;;;13.00;3.80;;;;;;;-128.00;-1.00;-1.00;133871;1275;1002659;-79
2023/03/15 01:30:47;;;;;;;3.80;3.50;;;;;;;-128.00;-1.00;-1.00;133863;1274;1002710;-80
2023/03/15 01:33:49;;;;;;;3.20;2.90;;;;;;;-128.00;-1.00;-1.00;133849;1274;1002413;-80
2023/03/15 01:36:52;;;;;;;4.10;3.30;;;;;;;-128.00;-1.00;-1.00;133860;1274;1001985;-80
2023/03/15 01:39:55;;;;;;;3.70;3.20;;;;;;;-128.00;-1.00;-1.00;133827;1275;1002320;-80
2023/03/15 01:42:57;;;;;;;3.80;3.50;;;;;;;-128.00;-1.00;-1.00;133877;1275;1001737;-80
2023/03/15 01:45:59;;;;;;;4.00;3.60;;;;;;;-128.00;-1.00;-1.00;133841;1274;1002728;-79
2023/03/15 01:49:02;;;;;;;4.50;4.00;;;;;;;-128.00;-1.00;-1.00;133880;1275;1002154;-80
2023/03/15 01:52:04;;;;;;;5.90;3.90;;;;;;;-128.00;-1.00;-1.00;133928;1275;1001844;-80
2023/03/15 01:55:07;;;;;;;12.00;3.10;;;;;;;-128.00;-1.00;-1.00;133863;1275;1002213;-79
2023/03/15 01:58:09;;;;;;;3.40;2.90;;;;;;;-128.00;-1.00;-1.00;133889;1274;1001740;-80
2023/03/15 02:01:13;;;;;;;3.40;2.60;;;;;;;-128.00;-1.00;-1.00;133870;1274;1002198;-79
2023/03/15 02:04:15;;;;;;;3.10;2.80;;;;;;;-128.00;-1.00;-1.00;133809;1275;1002400;-79
2023/03/15 02:07:18;;;;;;;3.10;2.80;;;;;;;-128.00;-1.00;-1.00;133821;1274;1002282;-78
2023/03/15 02:10:20;;;;;;;4.20;2.80;;;;;;;-128.00;-1.00;-1.00;133825;1274;1002249;-80
2023/03/15 02:13:25;;;;;;;3.20;3.00;;;;;;;-128.00;-1.00;-1.00;133867;1274;1002885;-79
2023/03/15 02:16:27;;;;;;;5.10;3.30;;;;;;;-128.00;-1.00;-1.00;133850;1275;1002314;-79
2023/03/15 02:19:30;;;;;;;3.40;3.10;;;;;;;-128.00;-1.00;-1.00;133817;1274;1002325;-80
2023/03/15 02:22:32;;;;;;;3.60;3.30;;;;;;;-128.00;-1.00;-1.00;133836;1274;1002393;-79
2023/03/15 02:25:35;;;;;;;5.80;4.10;;;;;;;-128.00;-1.00;-1.00;133821;1275;1002490;-79
2023/03/15 02:28:37;;;;;;;6.20;4.30;;;;;;;-128.00;-1.00;-1.00;133835;1275;1002607;-80
2023/03/15 02:31:42;;;;;;;6.50;4.60;;;;;;;-128.00;-1.00;-1.00;133868;1275;1002436;-80
2023/03/15 02:34:44;;;;;;;4.60;4.00;;;;;;;-128.00;-1.00;-1.00;133817;1274;1002219;-80
2023/03/15 02:37:49;;;;;;;5.10;4.60;;;;;;;-128.00;-1.00;-1.00;133842;1275;1002154;-80
2023/03/15 02:40:52;;;;;;;6.30;4.70;;;;;;;-128.00;-1.00;-1.00;133817;1274;1002434;-80
2023/03/15 02:43:54;;;;;;;5.50;4.30;;;;;;;-128.00;-1.00;-1.00;133781;1275;1002436;-80
2023/03/15 02:46:56;;;;;;;5.90;4.70;;;;;;;-128.00;-1.00;-1.00;133847;1275;1002295;-79
2023/03/15 02:49:59;;;;;;;10.40;6.30;;;;;;;-128.00;-1.00;-1.00;133862;1274;1002017;-80
2023/03/15 02:53:02;;;;;;;9.60;7.20;;;;;;;-128.00;-1.00;-1.00;133886;1275;1001803;-81
2023/03/15 02:56:05;;;;;;;11.00;7.00;;;;;;;-128.00;-1.00;-1.00;133846;1274;1002362;-81
2023/03/15 02:59:07;;;;;;;14.40;8.70;;;;;;;-128.00;-1.00;-1.00;133863;1275;1002151;-80
2023/03/15 03:02:10;;;;;;;14.10;8.50;;;;;;;-128.00;-1.00;-1.00;133870;1275;1002488;-81
2023/03/15 03:05:12;;;;;;;14.40;8.30;;;;;;;-128.00;-1.00;-1.00;133837;1275;1002504;-80
2023/03/15 03:08:15;;;;;;;13.40;8.60;;;;;;;-128.00;-1.00;-1.00;133878;1275;1002579;-79
2023/03/15 03:11:18;;;;;;;12.40;7.80;;;;;;;-128.00;-1.00;-1.00;133835;1275;1002374;-80
2023/03/15 03:14:22;;;;;;;16.80;8.70;;;;;;;-128.00;-1.00;-1.00;133859;1275;1002101;-81
2023/03/15 03:17:25;;;;;;;16.70;8.70;;;;;;;-128.00;-1.00;-1.00;133852;1275;1002575;-80
2023/03/15 03:20:27;;;;;;;22.20;9.30;;;;;;;-128.00;-1.00;-1.00;133827;1275;1002765;-79
2023/03/15 03:23:29;;;;;;;14.80;8.90;;;;;;;-128.00;-1.00;-1.00;133855;1275;1002495;-79
2023/03/15 03:26:32;;;;;;;13.50;8.90;;;;;;;-128.00;-1.00;-1.00;133833;1275;1002316;-80
2023/03/15 03:29:34;;;;;;;21.30;9.20;;;;;;;-128.00;-1.00;-1.00;133868;1275;1002607;-79
2023/03/15 03:32:36;;;;;;;15.00;8.20;;;;;;;-128.00;-1.00;-1.00;133835;1275;1002275;-80
2023/03/15 03:35:40;;;;;;;14.30;8.80;;;;;;;-128.00;-1.00;-1.00;133796;1275;1003195;-79
2023/03/15 03:38:42;;;;;;;21.20;8.60;;;;;;;-128.00;-1.00;-1.00;133753;1276;1002719;-80
2023/03/15 03:41:45;;;;;;;19.30;7.80;;;;;;;-128.00;-1.00;-1.00;133828;1275;1002437;-79
2023/03/15 03:44:49;;;;;;;17.40;7.30;;;;;;;-128.00;-1.00;-1.00;133833;1275;1002706;-79
2023/03/15 03:47:51;;;;;;;15.40;6.90;;;;;;;-128.00;-1.00;-1.00;133815;1275;1002140;-80
2023/03/15 03:50:56;;;;;;;16.40;7.10;;;;;;;-128.00;-1.00;-1.00;133826;1275;1002213;-80
2023/03/15 03:53:58;;;;;;;;;;;;;;;-128.00;-1.00;-1.00;133877;1275;1001991;-80
2023/03/15 03:57:01;;;;;;;20.40;7.80;;;;;;;-128.00;-1.00;-1.00;133824;1274;1002523;-80
2023/03/15 04:00:04;;;;;;;17.30;6.60;;;;;;;-128.00;-1.00;-1.00;133860;1275;1002603;-80
2023/03/15 04:03:06;;;;;;;12.00;6.30;;;;;;;-128.00;-1.00;-1.00;133832;1274;1002469;-80
2023/03/15 04:06:09;;;;;;;10.80;6.00;;;;;;;-128.00;-1.00;-1.00;133737;1275;1002324;-80
2023/03/15 04:09:11;;;;;;;16.30;5.70;;;;;;;-128.00;-1.00;-1.00;133756;1275;1002640;-79
2023/03/15 04:12:14;;;;;;;13.70;7.00;;;;;;;-128.00;-1.00;-1.00;133773;1275;1002995;-80
2023/03/15 04:15:16;;;;;;;14.70;6.00;;;;;;;-128.00;-1.00;-1.00;133807;1275;1002313;-79
2023/03/15 04:18:18;;;;;;;16.90;6.10;;;;;;;-128.00;-1.00;-1.00;133827;1275;1002717;-80
2023/03/15 04:21:21;;;;;;;14.40;5.80;;;;;;;-128.00;-1.00;-1.00;133806;1274;1002932;-80
2023/03/15 04:24:24;;;;;;;12.50;6.40;;;;;;;-128.00;-1.00;-1.00;133825;1274;1002491;-80
2023/03/15 04:27:26;;;;;;;21.00;6.50;;;;;;;-128.00;-1.00;-1.00;133809;1274;1002416;-80
2023/03/15 04:30:29;;;;;;;18.40;5.40;;;;;;;-128.00;-1.00;-1.00;133770;1274;1002324;-80
2023/03/15 04:33:32;;;;;;;14.00;5.40;;;;;;;-128.00;-1.00;-1.00;133822;1274;1002697;-80
2023/03/15 04:36:34;;;;;;;9.60;5.10;;;;;;;-128.00;-1.00;-1.00;133779;1274;1002245;-79
2023/03/15 04:39:41;;;;;;;12.60;5.40;;;;;;;-128.00;-1.00;-1.00;133733;1275;1002473;-79
2023/03/15 04:42:43;;;;;;;14.40;5.30;;;;;;;-128.00;-1.00;-1.00;133736;1275;1002709;-77
2023/03/15 04:45:46;;;;;;;15.60;5.50;;;;;;;-128.00;-1.00;-1.00;133738;1275;1002329;-79
2023/03/15 04:48:48;;;;;;;16.10;6.70;;;;;;;-128.00;-1.00;-1.00;133731;1275;1003101;-79
2023/03/15 04:51:51;;;;;;;20.60;6.70;;;;;;;-128.00;-1.00;-1.00;133769;1274;1002539;-79
2023/03/15 04:54:53;;;;;;;28.60;7.90;;;;;;;-128.00;-1.00;-1.00;133796;1275;1002000;-79
2023/03/15 04:57:57;;;;;;;16.10;5.40;;;;;;;-128.00;-1.00;-1.00;133762;1274;1002450;-79
2023/03/15 05:00:59;;;;;;;11.90;5.70;;;;;;;-128.00;-1.00;-1.00;133770;1275;1002319;-79
2023/03/15 05:04:02;;;;;;;15.90;5.80;;;;;;;-128.00;-1.00;-1.00;133798;1274;1002383;-78
2023/03/15 05:07:04;;;;;;;15.50;6.80;;;;;;;-128.00;-1.00;-1.00;133792;1274;1002308;-80
2023/03/15 05:10:10;;;;;;;16.70;6.00;;;;;;;-128.00;-1.00;-1.00;133837;1275;1001970;-79
2023/03/15 05:13:12;;;;;;;18.10;5.90;;;;;;;-128.00;-1.00;-1.00;133761;1275;1002321;-80
2023/03/15 05:16:15;;;;;;;18.10;6.90;;;;;;;-128.00;-1.00;-1.00;133732;1275;1002078;-78
2023/03/15 05:19:17;;;;;;;17.80;5.60;;;;;;;-128.00;-1.00;-1.00;133694;1275;1002211;-79
2023/03/15 05:22:24;;;;;;;14.20;6.80;;;;;;;-128.00;-1.00;-1.00;133745;1275;1002511;-80
2023/03/15 05:25:27;;;;;;;13.30;6.30;;;;;;;-128.00;-1.00;-1.00;133740;1275;1002822;-80
2023/03/15 05:28:30;;;;;;;13.70;5.50;;;;;;;-128.00;-1.00;-1.00;133737;1275;1002432;-80
2023/03/15 05:31:35;;;;;;;13.50;5.90;;;;;;;-128.00;-1.00;-1.00;133785;1275;1002405;-81
2023/03/15 05:34:38;;;;;;;17.00;6.90;;;;;;;-128.00;-1.00;-1.00;133770;1275;1002010;-81
2023/03/15 05:37:41;;;;;;;17.80;7.00;;;;;;;-128.00;-1.00;-1.00;133757;1275;1002664;-81
2023/03/15 05:40:43;;;;;;;20.80;7.10;;;;;;;-128.00;-1.00;-1.00;133718;1275;1003247;-79
2023/03/15 05:43:46;;;;;;;19.40;7.40;;;;;;;-128.00;-1.00;-1.00;133750;1275;1002311;-80
2023/03/15 05:46:48;;;;;;;21.50;7.30;;;;;;;-128.00;-1.00;-1.00;133737;1275;1002905;-80
2023/03/15 05:49:51;;;;;;;18.50;6.80;;;;;;;-128.00;-1.00;-1.00;133733;1275;1002369;-79
2023/03/15 05:52:53;;;;;;;18.70;7.40;;;;;;;-128.00;-1.00;-1.00;133726;1275;1002453;-82
2023/03/15 05:55:56;;;;;;;21.90;6.50;;;;;;;-128.00;-1.00;-1.00;133736;1275;1002257;-80
2023/03/15 05:59:01;;;;;;;20.30;6.60;;;;;;;-128.00;-1.00;-1.00;133699;1275;1002271;-80
2023/03/15 06:02:04;;;;;;;18.30;7.10;;;;;;;-128.00;-1.00;-1.00;133691;1275;1002319;-80
2023/03/15 06:05:06;;;;;;;21.50;6.60;;;;;;;-128.00;-1.00;-1.00;133704;1275;1002276;-79
2023/03/15 06:08:09;;;;;;;21.00;6.40;;;;;;;-128.00;-1.00;-1.00;133674;1275;1002379;-78
2023/03/15 06:11:11;;;;;;;19.60;7.00;;;;;;;-128.00;-1.00;-1.00;133683;1275;1002188;-79
2023/03/15 06:14:14;;;;;;;18.90;7.30;;;;;;;-128.00;-1.00;-1.00;133729;1275;1001832;-80
2023/03/15 06:17:16;;;;;;;16.90;7.40;;;;;;;-128.00;-1.00;-1.00;133751;1275;1002878;-78
2023/03/15 06:20:18;;;;;;;27.00;7.00;;;;;;;-128.00;-1.00;-1.00;133798;1275;1002386;-78
2023/03/15 06:23:21;;;;;;;16.40;6.80;;;;;;;-128.00;-1.00;-1.00;133731;1275;1002292;-79
2023/03/15 06:26:23;;;;;;;29.00;8.70;;;;;;;-128.00;-1.00;-1.00;133741;1275;1002465;-79
2023/03/15 06:29:26;;;;;;;18.80;7.60;;;;;;;-128.00;-1.00;-1.00;133770;1275;1002631;-79
2023/03/15 06:32:28;;;;;;;21.20;7.00;;;;;;;-128.00;-1.00;-1.00;133793;1275;1002623;-79
2023/03/15 06:35:31;;;;;;;21.50;9.60;;;;;;;-128.00;-1.00;-1.00;133823;1275;1002914;-79
2023/03/15 06:38:33;;;;;;;27.40;8.00;;;;;;;-128.00;-1.00;-1.00;133706;1275;1002518;-79
2023/03/15 06:41:36;;;;;;;19.00;8.40;;;;;;;-128.00;-1.00;-1.00;133758;1275;1002233;-79
2023/03/15 06:44:38;;;;;;;25.90;10.10;;;;;;;-128.00;-1.00;-1.00;133723;1275;1002552;-79
2023/03/15 06:47:40;;;;;;;16.10;7.90;;;;;;;-128.00;-1.00;-1.00;133766;1275;1002426;-78
2023/03/15 06:50:43;;;;;;;23.60;9.10;;;;;;;-128.00;-1.00;-1.00;133694;1275;1002352;-79
2023/03/15 06:53:45;;;;;;;24.40;9.10;;;;;;;-128.00;-1.00;-1.00;133723;1275;1002550;-79
2023/03/15 06:56:48;;;;;;;20.20;9.10;;;;;;;-128.00;-1.00;-1.00;133719;1275;1002127;-78
2023/03/15 06:59:52;;;;;;;25.00;9.60;;;;;;;-128.00;-1.00;-1.00;133693;1275;1002020;-80
2023/03/15 07:02:55;;;;;;;18.60;8.20;;;;;;;-128.00;-1.00;-1.00;133685;1275;1002059;-78
2023/03/15 07:05:57;;;;;;;15.00;7.30;;;;;;;-128.00;-1.00;-1.00;133678;1275;1002581;-78
2023/03/15 07:09:00;;;;;;;23.10;10.00;;;;;;;-128.00;-1.00;-1.00;133632;1276;1002487;-79
2023/03/15 07:12:02;;;;;;;23.80;11.70;;;;;;;-128.00;-1.00;-1.00;133669;1275;1002016;-79
2023/03/15 07:15:05;;;;;;;36.70;16.20;;;;;;;-128.00;-1.00;-1.00;133560;1275;1002346;-79
2023/03/15 07:18:07;;;;;;;23.30;10.50;;;;;;;-128.00;-1.00;-1.00;133716;1275;1002641;-80
2023/03/15 07:21:09;;;;;;;34.20;10.60;;;;;;;-128.00;-1.00;-1.00;133709;1275;1002270;-80
2023/03/15 07:24:14;;;;;;;20.60;8.00;;;;;;;-128.00;-1.00;-1.00;133742;1275;1002369;-80
2023/03/15 07:27:16;;;;;;;42.10;14.30;;;;;;;-128.00;-1.00;-1.00;133743;1275;1002149;-80
2023/03/15 07:30:19;;;;;;;26.90;10.30;;;;;;;-128.00;-1.00;-1.00;133758;1275;1001805;-80
2023/03/15 07:33:22;;;;;;;27.60;10.30;;;;;;;-128.00;-1.00;-1.00;133850;1275;1001795;-79
2023/03/15 07:36:24;;;;;;;30.90;8.40;;;;;;;-128.00;-1.00;-1.00;133780;1275;1002871;-79
2023/03/15 07:39:27;;;;;;;27.80;8.50;;;;;;;-128.00;-1.00;-1.00;133778;1275;1001934;-80
2023/03/15 07:42:30;;;;;;;19.00;8.30;;;;;;;-128.00;-1.00;-1.00;133829;1275;1002198;-80
2023/03/15 07:45:32;;;;;;;22.80;8.40;;;;;;;-128.00;-1.00;-1.00;133797;1275;1002017;-79
2023/03/15 07:48:35;;;;;;;23.20;8.80;;;;;;;-128.00;-1.00;-1.00;133784;1275;1002295;-79
2023/03/15 07:51:37;;;;;;;20.20;8.60;;;;;;;-128.00;-1.00;-1.00;133725;1275;1002261;-79
2023/03/15 07:54:40;;;;;;;18.30;7.60;;;;;;;-128.00;-1.00;-1.00;133746;1275;1002315;-80
2023/03/15 07:57:42;;;;;;;24.70;7.90;;;;;;;-128.00;-1.00;-1.00;133754;1275;1002523;-80
2023/03/15 08:00:45;;;;;;;29.50;10.40;;;;;;;-128.00;-1.00;-1.00;133705;1275;1002934;-79
2023/03/15 08:03:47;;;;;;;23.20;8.10;;;;;;;-128.00;-1.00;-1.00;133758;1275;1002028;-77
2023/03/15 08:06:49;;;;;;;21.20;8.00;;;;;;;-128.00;-1.00;-1.00;133798;1275;1002428;-79
2023/03/15 08:09:52;;;;;;;17.20;6.90;;;;;;;-128.00;-1.00;-1.00;133722;1275;1002395;-80
2023/03/15 08:12:54;;;;;;;21.70;7.60;;;;;;;-128.00;-1.00;-1.00;133772;1275;1001977;-80
2023/03/15 08:15:57;;;;;;;16.90;7.80;;;;;;;-128.00;-1.00;-1.00;133734;1275;1002573;-79
2023/03/15 08:18:59;;;;;;;19.30;7.10;;;;;;;-128.00;-1.00;-1.00;133764;1275;1002634;-80
2023/03/15 08:22:02;;;;;;;31.40;6.20;;;;;;;-128.00;-1.00;-1.00;133747;1275;1002914;-78
2023/03/15 08:25:04;;;;;;;19.40;6.40;;;;;;;-128.00;-1.00;-1.00;133742;1275;1001925;-80
2023/03/15 08:28:06;;;;;;;22.60;7.60;;;;;;;-128.00;-1.00;-1.00;133740;1275;1002521;-80
2023/03/15 08:31:12;;;;;;;20.70;7.00;;;;;;;-128.00;-1.00;-1.00;133719;1275;1002404;-79
2023/03/15 08:34:15;;;;;;;20.30;7.70;;;;;;;-128.00;-1.00;-1.00;133697;1275;1002341;-79
2023/03/15 08:37:17;;;;;;;22.40;7.30;;;;;;;-128.00;-1.00;-1.00;133687;1275;1002437;-80
2023/03/15 08:40:23;;;;;;;19.00;7.80;;;;;;;-128.00;-1.00;-1.00;133689;1275;1002867;-79
2023/03/15 08:43:26;;;;;;;19.70;7.70;;;;;;;-128.00;-1.00;-1.00;133704;1275;1002183;-79
2023/03/15 08:46:28;;;;;;;12.20;5.00;;;;;;;-128.00;-1.00;-1.00;133696;1275;1002003;-80
2023/03/15 08:49:31;;;;;;;15.20;5.90;;;;;;;-128.00;-1.00;-1.00;133722;1275;1002351;-78
2023/03/15 08:52:33;;;;;;;15.90;7.10;;;;;;;-128.00;-1.00;-1.00;133748;1275;1002285;-80
2023/03/15 08:55:35;;;;;;;24.60;6.30;;;;;;;-128.00;-1.00;-1.00;133708;1275;1001969;-79
2023/03/15 08:58:38;;;;;;;21.50;5.40;;;;;;;-128.00;-1.00;-1.00;133730;1275;1002356;-80
2023/03/15 09:01:40;;;;;;;13.60;4.00;;;;;;;-128.00;-1.00;-1.00;133747;1275;1002572;-80
2023/03/15 09:04:43;;;;;;;13.40;4.50;;;;;;;-128.00;-1.00;-1.00;133732;1275;1002368;-79
2023/03/15 09:07:45;;;;;;;19.80;4.60;;;;;;;-128.00;-1.00;-1.00;133710;1275;1002302;-80
2023/03/15 09:10:48;;;;;;;13.80;3.70;;;;;;;-128.00;-1.00;-1.00;133674;1275;1003152;-80
2023/03/15 09:13:51;;;;;;;15.40;4.30;;;;;;;-128.00;-1.00;-1.00;133739;1275;1002445;-79
2023/03/15 09:16:53;;;;;;;18.10;4.30;;;;;;;-128.00;-1.00;-1.00;133754;1275;1002364;-80
2023/03/15 09:19:56;;;;;;;9.50;3.50;;;;;;;-128.00;-1.00;-1.00;133699;1275;1002589;-79
2023/03/15 09:22:58;;;;;;;9.30;3.70;;;;;;;-128.00;-1.00;-1.00;133760;1275;1002625;-80
2023/03/15 09:26:02;;;;;;;17.30;4.60;;;;;;;-128.00;-1.00;-1.00;133716;1275;1002411;-80
2023/03/15 09:29:04;;;;;;;18.90;4.90;;;;;;;-128.00;-1.00;-1.00;133762;1275;1001923;-79
2023/03/15 09:32:12;;;;;;;17.10;4.00;;;;;;;-128.00;-1.00;-1.00;133729;1275;1002244;-81
2023/03/15 09:35:25;;;;;;;12.40;4.40;;;;;;;-128.00;-1.00;-1.00;133773;1275;1002723;-80
2023/03/15 09:38:28;;;;;;;22.80;9.10;;;;;;;-128.00;-1.00;-1.00;133706;1275;1002364;-80
2023/03/15 09:41:30;;;;;;;37.20;15.80;;;;;;;-128.00;-1.00;-1.00;133754;1275;1002477;-79
2023/03/15 09:44:33;;;;;;;15.60;6.40;;;;;;;-128.00;-1.00;-1.00;133769;1275;1002318;-79
2023/03/15 09:47:36;;;;;;;21.30;5.00;;;;;;;-128.00;-1.00;-1.00;133781;1275;1001968;-80
2023/03/15 09:50:39;;;;;;;25.70;6.90;;;;;;;-128.00;-1.00;-1.00;133835;1275;1002059;-81
2023/03/15 09:53:51;;;;;;;15.90;4.80;;;;;;;-128.00;-1.00;-1.00;133761;1275;1002158;-81
2023/03/15 09:56:55;;;;;;;12.80;4.20;;;;;;;-128.00;-1.00;-1.00;133738;1261;1002274;-81
2023/03/15 09:59:57;;;;;;;13.90;3.50;;;;;;;-128.00;-1.00;-1.00;133735;1275;1002064;-80
2023/03/15 10:03:06;;;;;;;11.40;4.40;;;;;;;-128.00;-1.00;-1.00;133720;1275;1002771;-82
2023/03/15 10:06:09;;;;;;;11.60;3.70;;;;;;;-128.00;-1.00;-1.00;133765;1275;1002145;-80
2023/03/15 10:09:11;;;;;;;10.20;3.90;;;;;;;-128.00;-1.00;-1.00;133693;1276;1002430;-81
2023/03/15 10:12:15;;;;;;;10.40;3.60;;;;;;;-128.00;-1.00;-1.00;133845;1275;1002417;-77
2023/03/15 10:15:24;;;;;;;28.30;8.50;;;;;;;-128.00;-1.00;-1.00;133737;1275;1003091;-79
2023/03/15 10:18:27;;;;;;;20.70;7.70;;;;;;;-128.00;-1.00;-1.00;133847;1275;1002420;-78
2023/03/15 10:21:34;;;;;;;13.20;4.60;;;;;;;-128.00;-1.00;-1.00;133766;1275;1002474;-80
2023/03/15 10:24:38;;;;;;;7.50;3.80;;;;;;;-128.00;-1.00;-1.00;133753;1275;1002176;-79
2023/03/15 10:27:43;;;;;;;8.60;4.40;;;;;;;-128.00;-1.00;-1.00;133800;1275;1002330;-81
2023/03/15 10:30:45;;;;;;;18.40;6.00;;;;;;;-128.00;-1.00;-1.00;133875;1275;1002436;-80
2023/03/15 10:33:48;;;;;;;20.10;5.40;;;;;;;-128.00;-1.00;-1.00;133837;1275;1002617;-79
2023/03/15 10:36:53;;;;;;;21.60;3.90;;;;;;;-128.00;-1.00;-1.00;133764;1275;1001870;-77
2023/03/15 10:40:06;;;;;;;34.90;4.70;;;;;;;-128.00;-1.00;-1.00;133799;1275;1003040;-80
2023/03/15 10:43:09;;;;;;;20.80;4.60;;;;;;;-128.00;-1.00;-1.00;133649;1261;1002436;-80
2023/03/15 10:46:11;;;;;;;18.70;4.30;;;;;;;-128.00;-1.00;-1.00;133864;1274;1001997;-80
2023/03/15 10:49:17;;;;;;;8.80;3.40;;;;;;;-128.00;-1.00;-1.00;133686;1275;1002297;-79
2023/03/15 10:52:20;;;;;;;43.60;5.60;;;;;;;-128.00;-1.00;-1.00;133812;1275;1002085;-80
2023/03/15 10:55:22;;;;;;;10.00;4.00;;;;;;;-128.00;-1.00;-1.00;133902;1275;1002170;-79
2023/03/15 10:58:26;;;;;;;12.80;4.90;;;;;;;-128.00;-1.00;-1.00;133746;1275;1002126;-80
2023/03/15 11:01:51;;;;;;;13.20;4.10;;;;;;;-128.00;-1.00;-1.00;133581;1275;1002316;-80
2023/03/15 11:04:53;;;;;;;16.80;4.00;;;;;;;-128.00;-1.00;-1.00;133775;1275;1002431;-80
2023/03/15 11:07:56;;;;;;;12.00;4.40;;;;;;;-128.00;-1.00;-1.00;133831;1275;1002264;-79
2023/03/15 11:11:01;;;;;;;12.00;3.30;;;;;;;-128.00;-1.00;-1.00;133785;1275;1002292;-79
2023/03/15 11:14:04;;;;;;;10.50;3.10;;;;;;;-128.00;-1.00;-1.00;133786;1274;1002498;-79
2023/03/15 11:17:06;;;;;;;13.70;3.30;;;;;;;-128.00;-1.00;-1.00;133802;1275;1002404;-79
2023/03/15 11:20:11;;;;;;;8.40;2.90;;;;;;;-128.00;-1.00;-1.00;133834;1275;1002300;-78
2023/03/15 11:23:14;;;;;;;14.40;5.70;;;;;;;-128.00;-1.00;-1.00;133828;1275;1002555;-78
2023/03/15 11:26:17;;;;;;;14.10;6.50;;;;;;;-128.00;-1.00;-1.00;133812;1275;1002587;-79
2023/03/15 11:29:19;;;;;;;11.30;5.00;;;;;;;-128.00;-1.00;-1.00;133768;1274;1002401;-79
2023/03/15 11:32:22;;;;;;;25.50;11.80;;;;;;;-128.00;-1.00;-1.00;133810;1260;1002050;-80
2023/03/15 11:35:27;;;;;;;16.00;5.50;;;;;;;-128.00;-1.00;-1.00;133824;1274;1001996;-79
2023/03/15 11:38:32;;;;;;;19.40;7.50;;;;;;;-128.00;-1.00;-1.00;133796;1274;1002538;-78
2023/03/15 11:41:37;;;;;;;19.90;7.70;;;;;;;-128.00;-1.00;-1.00;133793;1275;1002844;-79
2023/03/15 11:44:40;;;;;;;19.30;5.90;;;;;;;-128.00;-1.00;-1.00;133824;1274;1002608;-79
2023/03/15 11:47:42;;;;;;;14.30;6.10;;;;;;;-128.00;-1.00;-1.00;133860;1274;1001796;-80
2023/03/15 11:50:45;;;;;;;17.40;7.20;;;;;;;-128.00;-1.00;-1.00;133832;1275;1002469;-80
2023/03/15 11:53:47;;;;;;;13.50;4.30;;;;;;;-128.00;-1.00;-1.00;133814;1274;1002484;-80
2023/03/15 11:56:49;;;;;;;9.30;4.10;;;;;;;-128.00;-1.00;-1.00;133859;1274;1002087;-80
2023/03/15 11:59:52;;;;;;;16.90;5.10;;;;;;;-128.00;-1.00;-1.00;133823;1275;1002314;-80
2023/03/15 12:02:54;;;;;;;19.30;4.60;;;;;;;-128.00;-1.00;-1.00;133820;1275;1002260;-80
2023/03/15 12:05:57;;;;;;;14.50;4.10;;;;;;;-128.00;-1.00;-1.00;133804;1275;1002388;-81
2023/03/15 12:09:00;;;;;;;25.30;13.00;;;;;;;-128.00;-1.00;-1.00;133788;1275;1002106;-80
2023/03/15 12:12:03;;;;;;;12.80;8.40;;;;;;;-128.00;-1.00;-1.00;133819;1275;1002934;-79
2023/03/15 12:15:07;;;;;;;9.60;4.40;;;;;;;-128.00;-1.00;-1.00;133799;1275;1002670;-79
2023/03/15 12:18:10;;;;;;;14.10;6.00;;;;;;;-128.00;-1.00;-1.00;133789;1275;1002384;-79
2023/03/15 12:21:12;;;;;;;8.70;3.00;;;;;;;-128.00;-1.00;-1.00;133746;1275;1002663;-80
2023/03/15 12:24:16;;;;;;;8.50;3.30;;;;;;;-128.00;-1.00;-1.00;133766;1275;1002731;-80
2023/03/15 12:27:19;;;;;;;9.80;3.00;;;;;;;-128.00;-1.00;-1.00;133803;1275;1002411;-80
2023/03/15 12:30:23;;;;;;;13.50;3.60;;;;;;;-128.00;-1.00;-1.00;133788;1275;1002273;-79
2023/03/15 12:33:26;;;;;;;11.50;5.00;;;;;;;-128.00;-1.00;-1.00;133778;1275;1002352;-81
2023/03/15 12:36:29;;;;;;;12.10;3.50;;;;;;;-128.00;-1.00;-1.00;133826;1274;1002556;-81
2023/03/15 12:39:32;;;;;;;9.20;3.40;;;;;;;-128.00;-1.00;-1.00;133783;1275;1002568;-80
2023/03/15 12:42:37;;;;;;;12.90;4.10;;;;;;;-128.00;-1.00;-1.00;133764;1275;1002453;-80
2023/03/15 12:45:40;;;;;;;10.80;4.90;;;;;;;-128.00;-1.00;-1.00;133771;1275;1003044;-81
2023/03/15 12:48:42;;;;;;;9.90;3.60;;;;;;;-128.00;-1.00;-1.00;133856;1274;1002437;-81
2023/03/15 12:51:45;;;;;;;14.10;5.20;;;;;;;-128.00;-1.00;-1.00;133882;1275;1002208;-81
2023/03/15 12:54:51;;;;;;;9.00;4.00;;;;;;;-128.00;-1.00;-1.00;133850;1275;1002440;-81
2023/03/15 12:58:07;;;;;;;12.40;3.90;;;;;;;-128.00;-1.00;-1.00;133792;1275;1003570;-80
2023/03/15 13:01:15;;;;;;;14.20;4.50;;;;;;;-128.00;-1.00;-1.00;133886;1274;1002550;-82
2023/03/15 13:04:34;;;;;;;11.90;4.60;;;;;;;-128.00;-1.00;-1.00;133849;1274;1002337;-81
2023/03/15 13:07:37;;;;;;;16.00;3.90;;;;;;;-128.00;-1.00;-1.00;133902;1274;1002350;-80
2023/03/15 13:10:39;;;;;;;10.80;3.40;;;;;;;-128.00;-1.00;-1.00;133782;1274;1002293;-79
2023/03/15 13:13:43;;;;;;;60.10;22.60;;;;;;;-128.00;-1.00;-1.00;133788;1275;1002632;-80
2023/03/15 13:16:46;;;;;;;9.30;3.80;;;;;;;-128.00;-1.00;-1.00;133730;1275;1002398;-80
2023/03/15 13:19:48;;;;;;;8.70;3.60;;;;;;;-128.00;-1.00;-1.00;133728;1274;1002587;-79
2023/03/15 13:22:51;;;;;;;8.60;3.40;;;;;;;-128.00;-1.00;-1.00;133736;1274;1002344;-79
2023/03/15 13:25:53;;;;;;;7.70;3.70;;;;;;;-128.00;-1.00;-1.00;133672;1267;1002330;-79
2023/03/15 13:28:56;;;;;;;14.80;4.70;;;;;;;-128.00;-1.00;-1.00;133718;1274;1003012;-78
2023/03/15 13:31:58;;;;;;;7.80;3.70;;;;;;;-128.00;-1.00;-1.00;133708;1274;1002925;-78
2023/03/15 13:35:01;;;;;;;8.90;3.30;;;;;;;-128.00;-1.00;-1.00;133750;1274;1003120;-79
2023/03/15 13:38:03;;;;;;;10.70;4.20;;;;;;;-128.00;-1.00;-1.00;133736;1275;1002368;-78
2023/03/15 13:41:05;;;;;;;10.00;3.90;;;;;;;-128.00;-1.00;-1.00;133746;1274;1002475;-80
2023/03/15 13:44:08;;;;;;;8.70;4.10;;;;;;;-128.00;-1.00;-1.00;133787;1274;1002469;-80
2023/03/15 13:47:10;;;;;;;8.60;4.00;;;;;;;-128.00;-1.00;-1.00;133830;1275;1002581;-79
2023/03/15 13:50:13;;;;;;;14.60;5.60;;;;;;;-128.00;-1.00;-1.00;133837;1274;1002967;-81
2023/03/15 13:53:15;;;;;;;8.80;3.80;;;;;;;-128.00;-1.00;-1.00;133839;1259;1002509;-80
2023/03/15 13:56:18;;;;;;;13.30;4.20;;;;;;;-128.00;-1.00;-1.00;133824;1274;1002054;-79